sensor_id;sensor_type;location;lat;lon;timestamp;P1;durP1;ratioP1;P2;durP2;ratioP2
3355;SDS011;1691;52.486;13.374;2024-01-16T00:00:42;2.50;;;1.60;;
3355;SDS011;1691;52.486;13.374;2024-01-16T00:03:09;1.80;;;1.70;;
3355;SDS011;1691;52.486;13.374;2024-01-16T00:05:36;2.87;;;1.43;;
3355;SDS011;1691;52.486;13.374;2024-01-16T00:08:03;4.43;;;1.57;;
3355;SDS011;1691;52.486;13.374;2024-01-16T00:10:31;2.83;;;1.47;;
3355;SDS011;1691;52.486;13.374;2024-01-16T00:12:58;5.43;;;1.50;;
3355;SDS011;1691;52.486;13.374;2024-01-16T00:15:25;2.87;;;1.33;;
3355;SDS011;1691;52.486;13.374;2024-01-16T00:17:52;2.07;;;1.90;;
3355;SDS011;1691;52.486;13.374;2024-01-16T00:20:20;1.87;;;1.70;;
3355;SDS011;1691;52.486;13.374;2024-01-16T00:22:49;1.93;;;1.83;;
3355;SDS011;1691;52.486;13.374;2024-01-16T00:25:17;3.13;;;1.77;;
3355;SDS011;1691;52.486;13.374;2024-01-16T00:27:46;2.07;;;1.93;;
3355;SDS011;1691;52.486;13.374;2024-01-16T00:30:13;2.30;;;2.10;;
3355;SDS011;1691;52.486;13.374;2024-01-16T00:32:41;5.40;;;1.80;;
3355;SDS011;1691;52.486;13.374;2024-01-16T00:35:08;2.30;;;2.10;;
3355;SDS011;1691;52.486;13.374;2024-01-16T00:37:36;4.87;;;2.00;;
3355;SDS011;1691;52.486;13.374;2024-01-16T00:40:04;3.47;;;1.80;;
3355;SDS011;1691;52.486;13.374;2024-01-16T00:42:32;2.67;;;1.73;;
3355;SDS011;1691;52.486;13.374;2024-01-16T00:44:59;3.33;;;2.73;;
3355;SDS011;1691;52.486;13.374;2024-01-16T00:47:26;4.23;;;2.30;;
3355;SDS011;1691;52.486;13.374;2024-01-16T00:49:53;2.63;;;2.47;;
3355;SDS011;1691;52.486;13.374;2024-01-16T00:52:20;2.10;;;1.90;;
3355;SDS011;1691;52.486;13.374;2024-01-16T00:54:47;7.27;;;2.20;;
3355;SDS011;1691;52.486;13.374;2024-01-16T00:57:15;2.57;;;1.50;;
3355;SDS011;1691;52.486;13.374;2024-01-16T00:59:48;2.03;;;1.90;;
3355;SDS011;1691;52.486;13.374;2024-01-16T01:02:15;2.57;;;2.27;;
3355;SDS011;1691;52.486;13.374;2024-01-16T01:04:42;4.10;;;2.17;;
3355;SDS011;1691;52.486;13.374;2024-01-16T01:07:12;3.40;;;2.00;;
3355;SDS011;1691;52.486;13.374;2024-01-16T01:09:40;3.73;;;2.10;;
3355;SDS011;1691;52.486;13.374;2024-01-16T01:12:07;2.23;;;1.33;;
3355;SDS011;1691;52.486;13.374;2024-01-16T01:14:34;1.60;;;1.50;;
3355;SDS011;1691;52.486;13.374;2024-01-16T01:17:01;1.73;;;1.20;;
3355;SDS011;1691;52.486;13.374;2024-01-16T01:19:29;3.60;;;1.77;;
3355;SDS011;1691;52.486;13.374;2024-01-16T01:21:56;1.00;;;1.00;;
3355;SDS011;1691;52.486;13.374;2024-01-16T01:24:23;1.50;;;1.40;;
3355;SDS011;1691;52.486;13.374;2024-01-16T01:26:50;9.63;;;1.67;;
3355;SDS011;1691;52.486;13.374;2024-01-16T01:29:17;2.77;;;1.50;;
3355;SDS011;1691;52.486;13.374;2024-01-16T01:31:47;2.40;;;2.03;;
3355;SDS011;1691;52.486;13.374;2024-01-16T01:34:14;1.20;;;1.10;;
3355;SDS011;1691;52.486;13.374;2024-01-16T01:36:42;1.20;;;1.17;;
3355;SDS011;1691;52.486;13.374;2024-01-16T01:39:09;1.27;;;1.23;;
3355;SDS011;1691;52.486;13.374;2024-01-16T01:41:39;1.50;;;1.33;;
3355;SDS011;1691;52.486;13.374;2024-01-16T01:44:06;1.20;;;1.10;;
3355;SDS011;1691;52.486;13.374;2024-01-16T01:46:34;0.93;;;0.93;;
3355;SDS011;1691;52.486;13.374;2024-01-16T01:49:02;1.00;;;1.00;;
3355;SDS011;1691;52.486;13.374;2024-01-16T01:51:30;1.23;;;1.20;;
3355;SDS011;1691;52.486;13.374;2024-01-16T01:53:57;1.70;;;1.30;;
3355;SDS011;1691;52.486;13.374;2024-01-16T01:56:25;1.33;;;1.23;;
3355;SDS011;1691;52.486;13.374;2024-01-16T01:58:54;1.00;;;1.00;;
3355;SDS011;1691;52.486;13.374;2024-01-16T02:01:25;1.57;;;1.00;;
3355;SDS011;1691;52.486;13.374;2024-01-16T02:03:54;1.43;;;1.13;;
3355;SDS011;1691;52.486;13.374;2024-01-16T02:06:23;1.50;;;1.43;;
3355;SDS011;1691;52.486;13.374;2024-01-16T02:08:50;4.17;;;2.10;;
3355;SDS011;1691;52.486;13.374;2024-01-16T02:11:18;4.13;;;1.40;;
3355;SDS011;1691;52.486;13.374;2024-01-16T02:13:45;1.37;;;1.27;;
3355;SDS011;1691;52.486;13.374;2024-01-16T02:16:19;1.23;;;1.23;;
3355;SDS011;1691;52.486;13.374;2024-01-16T02:18:50;1.50;;;1.40;;
3355;SDS011;1691;52.486;13.374;2024-01-16T02:21:22;1.30;;;1.20;;
3355;SDS011;1691;52.486;13.374;2024-01-16T02:23:52;2.40;;;1.33;;
3355;SDS011;1691;52.486;13.374;2024-01-16T02:26:19;2.53;;;1.23;;
3355;SDS011;1691;52.486;13.374;2024-01-16T02:28:47;4.07;;;1.50;;
3355;SDS011;1691;52.486;13.374;2024-01-16T02:31:14;0.90;;;0.90;;
3355;SDS011;1691;52.486;13.374;2024-01-16T02:33:41;1.40;;;1.30;;
3355;SDS011;1691;52.486;13.374;2024-01-16T02:36:08;1.07;;;1.07;;
3355;SDS011;1691;52.486;13.374;2024-01-16T02:38:35;2.57;;;0.97;;
3355;SDS011;1691;52.486;13.374;2024-01-16T02:41:03;1.57;;;1.40;;
3355;SDS011;1691;52.486;13.374;2024-01-16T02:43:30;1.37;;;1.27;;
3355;SDS011;1691;52.486;13.374;2024-01-16T02:45:57;1.77;;;1.13;;
3355;SDS011;1691;52.486;13.374;2024-01-16T02:48:24;3.53;;;2.03;;
3355;SDS011;1691;52.486;13.374;2024-01-16T02:50:51;1.73;;;1.63;;
3355;SDS011;1691;52.486;13.374;2024-01-16T02:53:18;1.27;;;1.27;;
3355;SDS011;1691;52.486;13.374;2024-01-16T02:55:45;1.27;;;1.27;;
3355;SDS011;1691;52.486;13.374;2024-01-16T02:58:12;1.90;;;1.80;;
3355;SDS011;1691;52.486;13.374;2024-01-16T03:00:39;9.50;;;2.00;;
3355;SDS011;1691;52.486;13.374;2024-01-16T03:03:06;3.53;;;1.87;;
3355;SDS011;1691;52.486;13.374;2024-01-16T03:05:34;5.67;;;1.57;;
3355;SDS011;1691;52.486;13.374;2024-01-16T03:08:01;1.73;;;1.43;;
3355;SDS011;1691;52.486;13.374;2024-01-16T03:10:28;1.90;;;1.80;;
3355;SDS011;1691;52.486;13.374;2024-01-16T03:12:55;1.40;;;1.30;;
3355;SDS011;1691;52.486;13.374;2024-01-16T03:15:23;1.93;;;1.83;;
3355;SDS011;1691;52.486;13.374;2024-01-16T03:17:50;1.27;;;1.27;;
3355;SDS011;1691;52.486;13.374;2024-01-16T03:20:17;11.43;;;2.00;;
3355;SDS011;1691;52.486;13.374;2024-01-16T03:22:44;2.10;;;2.00;;
3355;SDS011;1691;52.486;13.374;2024-01-16T03:25:11;3.20;;;1.70;;
3355;SDS011;1691;52.486;13.374;2024-01-16T03:27:39;1.47;;;1.47;;
3355;SDS011;1691;52.486;13.374;2024-01-16T03:30:06;2.00;;;1.90;;
3355;SDS011;1691;52.486;13.374;2024-01-16T03:32:35;2.10;;;2.00;;
3355;SDS011;1691;52.486;13.374;2024-01-16T03:35:04;1.70;;;1.47;;
3355;SDS011;1691;52.486;13.374;2024-01-16T03:37:32;3.57;;;2.10;;
3355;SDS011;1691;52.486;13.374;2024-01-16T03:40:00;1.90;;;1.70;;
3355;SDS011;1691;52.486;13.374;2024-01-16T03:42:27;4.90;;;0.90;;
3355;SDS011;1691;52.486;13.374;2024-01-16T03:44:54;1.97;;;1.83;;
3355;SDS011;1691;52.486;13.374;2024-01-16T03:47:21;1.60;;;1.17;;
3355;SDS011;1691;52.486;13.374;2024-01-16T03:49:49;1.40;;;1.30;;
3355;SDS011;1691;52.486;13.374;2024-01-16T03:52:17;1.50;;;1.50;;
3355;SDS011;1691;52.486;13.374;2024-01-16T03:54:44;2.50;;;1.63;;
3355;SDS011;1691;52.486;13.374;2024-01-16T03:57:11;3.77;;;1.70;;
3355;SDS011;1691;52.486;13.374;2024-01-16T03:59:38;3.00;;;1.67;;
3355;SDS011;1691;52.486;13.374;2024-01-16T04:02:05;6.10;;;1.80;;
3355;SDS011;1691;52.486;13.374;2024-01-16T04:04:32;1.90;;;1.80;;
3355;SDS011;1691;52.486;13.374;2024-01-16T04:06:59;1.43;;;1.43;;
3355;SDS011;1691;52.486;13.374;2024-01-16T04:09:26;1.63;;;1.53;;
3355;SDS011;1691;52.486;13.374;2024-01-16T04:11:53;2.10;;;2.00;;
3355;SDS011;1691;52.486;13.374;2024-01-16T04:14:20;3.63;;;1.80;;
3355;SDS011;1691;52.486;13.374;2024-01-16T04:16:48;3.53;;;1.77;;
3355;SDS011;1691;52.486;13.374;2024-01-16T04:19:15;1.67;;;1.57;;
3355;SDS011;1691;52.486;13.374;2024-01-16T04:21:42;6.00;;;4.87;;
3355;SDS011;1691;52.486;13.374;2024-01-16T04:24:09;4.83;;;1.93;;
3355;SDS011;1691;52.486;13.374;2024-01-16T04:26:36;2.00;;;1.90;;
3355;SDS011;1691;52.486;13.374;2024-01-16T04:29:04;2.30;;;2.13;;
3355;SDS011;1691;52.486;13.374;2024-01-16T04:31:32;2.37;;;2.27;;
3355;SDS011;1691;52.486;13.374;2024-01-16T04:34:06;3.33;;;3.00;;
3355;SDS011;1691;52.486;13.374;2024-01-16T04:36:33;2.33;;;2.23;;
3355;SDS011;1691;52.486;13.374;2024-01-16T04:39:00;2.03;;;1.80;;
3355;SDS011;1691;52.486;13.374;2024-01-16T04:41:27;2.60;;;2.50;;
3355;SDS011;1691;52.486;13.374;2024-01-16T04:43:54;6.40;;;1.90;;
3355;SDS011;1691;52.486;13.374;2024-01-16T04:46:21;2.40;;;2.20;;
3355;SDS011;1691;52.486;13.374;2024-01-16T04:48:48;4.40;;;3.03;;
3355;SDS011;1691;52.486;13.374;2024-01-16T04:51:16;2.40;;;2.03;;
3355;SDS011;1691;52.486;13.374;2024-01-16T04:53:43;2.97;;;2.53;;
3355;SDS011;1691;52.486;13.374;2024-01-16T04:56:10;3.27;;;2.07;;
3355;SDS011;1691;52.486;13.374;2024-01-16T04:58:37;4.07;;;2.10;;
3355;SDS011;1691;52.486;13.374;2024-01-16T05:01:04;5.80;;;2.07;;
3355;SDS011;1691;52.486;13.374;2024-01-16T05:03:31;2.80;;;1.80;;
3355;SDS011;1691;52.486;13.374;2024-01-16T05:05:58;2.00;;;1.80;;
3355;SDS011;1691;52.486;13.374;2024-01-16T05:08:25;2.10;;;1.90;;
3355;SDS011;1691;52.486;13.374;2024-01-16T05:10:52;2.00;;;1.70;;
3355;SDS011;1691;52.486;13.374;2024-01-16T05:13:19;2.30;;;1.83;;
3355;SDS011;1691;52.486;13.374;2024-01-16T05:15:46;2.40;;;1.37;;
3355;SDS011;1691;52.486;13.374;2024-01-16T05:18:17;3.73;;;2.00;;
3355;SDS011;1691;52.486;13.374;2024-01-16T05:20:46;2.00;;;1.80;;
3355;SDS011;1691;52.486;13.374;2024-01-16T05:23:16;2.50;;;2.30;;
3355;SDS011;1691;52.486;13.374;2024-01-16T05:25:44;2.27;;;2.17;;
3355;SDS011;1691;52.486;13.374;2024-01-16T05:28:13;2.63;;;2.43;;
3355;SDS011;1691;52.486;13.374;2024-01-16T05:30:52;2.43;;;2.33;;
3355;SDS011;1691;52.486;13.374;2024-01-16T05:33:24;2.70;;;2.50;;
3355;SDS011;1691;52.486;13.374;2024-01-16T05:36:07;2.30;;;2.20;;
3355;SDS011;1691;52.486;13.374;2024-01-16T05:38:42;3.07;;;2.77;;
3355;SDS011;1691;52.486;13.374;2024-01-16T05:41:20;2.10;;;2.00;;
3355;SDS011;1691;52.486;13.374;2024-01-16T05:44:00;2.50;;;2.40;;
3355;SDS011;1691;52.486;13.374;2024-01-16T05:46:32;4.50;;;2.40;;
3355;SDS011;1691;52.486;13.374;2024-01-16T05:49:00;3.00;;;2.90;;
3355;SDS011;1691;52.486;13.374;2024-01-16T05:51:53;1.90;;;1.80;;
3355;SDS011;1691;52.486;13.374;2024-01-16T05:54:50;2.17;;;1.80;;
3355;SDS011;1691;52.486;13.374;2024-01-16T05:57:36;3.47;;;2.13;;
3355;SDS011;1691;52.486;13.374;2024-01-16T06:00:26;2.70;;;2.50;;
3355;SDS011;1691;52.486;13.374;2024-01-16T06:03:03;7.23;;;3.30;;
3355;SDS011;1691;52.486;13.374;2024-01-16T06:05:47;3.47;;;3.20;;
3355;SDS011;1691;52.486;13.374;2024-01-16T06:08:22;3.23;;;2.67;;
3355;SDS011;1691;52.486;13.374;2024-01-16T06:10:51;3.13;;;2.93;;
3355;SDS011;1691;52.486;13.374;2024-01-16T06:13:26;3.43;;;2.53;;
3355;SDS011;1691;52.486;13.374;2024-01-16T06:16:05;4.50;;;2.90;;
3355;SDS011;1691;52.486;13.374;2024-01-16T06:18:47;3.10;;;2.90;;
3355;SDS011;1691;52.486;13.374;2024-01-16T06:21:21;3.27;;;2.93;;
3355;SDS011;1691;52.486;13.374;2024-01-16T06:23:55;3.10;;;2.90;;
3355;SDS011;1691;52.486;13.374;2024-01-16T06:26:44;8.43;;;3.50;;
3355;SDS011;1691;52.486;13.374;2024-01-16T06:29:19;4.83;;;4.23;;
3355;SDS011;1691;52.486;13.374;2024-01-16T06:32:01;3.50;;;3.40;;
3355;SDS011;1691;52.486;13.374;2024-01-16T06:34:42;2.90;;;2.80;;
3355;SDS011;1691;52.486;13.374;2024-01-16T06:37:11;4.77;;;3.50;;
3355;SDS011;1691;52.486;13.374;2024-01-16T06:39:43;3.43;;;3.20;;
3355;SDS011;1691;52.486;13.374;2024-01-16T06:42:11;3.37;;;3.10;;
3355;SDS011;1691;52.486;13.374;2024-01-16T06:44:38;3.17;;;2.63;;
3355;SDS011;1691;52.486;13.374;2024-01-16T06:47:12;8.27;;;2.67;;
3355;SDS011;1691;52.486;13.374;2024-01-16T06:49:42;3.20;;;3.00;;
3355;SDS011;1691;52.486;13.374;2024-01-16T06:52:19;2.80;;;2.60;;
3355;SDS011;1691;52.486;13.374;2024-01-16T06:54:47;4.80;;;3.30;;
3355;SDS011;1691;52.486;13.374;2024-01-16T06:57:15;3.43;;;3.27;;
3355;SDS011;1691;52.486;13.374;2024-01-16T06:59:46;4.70;;;3.10;;
3355;SDS011;1691;52.486;13.374;2024-01-16T07:02:14;3.90;;;3.27;;
3355;SDS011;1691;52.486;13.374;2024-01-16T07:04:53;9.73;;;3.43;;
3355;SDS011;1691;52.486;13.374;2024-01-16T07:07:26;3.47;;;2.70;;
3355;SDS011;1691;52.486;13.374;2024-01-16T07:09:57;6.77;;;3.67;;
3355;SDS011;1691;52.486;13.374;2024-01-16T07:12:34;4.63;;;3.10;;
3355;SDS011;1691;52.486;13.374;2024-01-16T07:15:08;6.60;;;3.20;;
3355;SDS011;1691;52.486;13.374;2024-01-16T07:17:45;8.50;;;2.90;;
3355;SDS011;1691;52.486;13.374;2024-01-16T07:20:17;3.00;;;2.80;;
3355;SDS011;1691;52.486;13.374;2024-01-16T07:22:56;6.60;;;3.53;;
3355;SDS011;1691;52.486;13.374;2024-01-16T07:25:26;3.07;;;2.80;;
3355;SDS011;1691;52.486;13.374;2024-01-16T07:27:54;3.57;;;3.37;;
3355;SDS011;1691;52.486;13.374;2024-01-16T07:30:26;3.37;;;3.07;;
3355;SDS011;1691;52.486;13.374;2024-01-16T07:32:57;2.87;;;2.63;;
3355;SDS011;1691;52.486;13.374;2024-01-16T07:35:28;5.77;;;2.90;;
3355;SDS011;1691;52.486;13.374;2024-01-16T07:38:03;3.17;;;2.97;;
3355;SDS011;1691;52.486;13.374;2024-01-16T07:40:31;13.13;;;10.17;;
3355;SDS011;1691;52.486;13.374;2024-01-16T07:43:07;9.03;;;7.03;;
3355;SDS011;1691;52.486;13.374;2024-01-16T07:45:36;16.30;;;10.43;;
3355;SDS011;1691;52.486;13.374;2024-01-16T07:48:07;4.00;;;3.70;;
3355;SDS011;1691;52.486;13.374;2024-01-16T07:50:36;4.90;;;3.70;;
3355;SDS011;1691;52.486;13.374;2024-01-16T07:53:07;3.97;;;3.23;;
3355;SDS011;1691;52.486;13.374;2024-01-16T07:55:35;3.27;;;3.13;;
3355;SDS011;1691;52.486;13.374;2024-01-16T07:58:06;3.70;;;3.40;;
3355;SDS011;1691;52.486;13.374;2024-01-16T08:00:34;5.00;;;3.70;;
3355;SDS011;1691;52.486;13.374;2024-01-16T08:03:03;6.63;;;3.20;;
3355;SDS011;1691;52.486;13.374;2024-01-16T08:05:49;3.47;;;3.20;;
3355;SDS011;1691;52.486;13.374;2024-01-16T08:08:28;4.53;;;3.33;;
3355;SDS011;1691;52.486;13.374;2024-01-16T08:11:04;2.53;;;2.43;;
3355;SDS011;1691;52.486;13.374;2024-01-16T08:13:34;4.20;;;3.43;;
3355;SDS011;1691;52.486;13.374;2024-01-16T08:16:06;4.50;;;3.17;;
3355;SDS011;1691;52.486;13.374;2024-01-16T08:18:37;4.97;;;3.60;;
3355;SDS011;1691;52.486;13.374;2024-01-16T08:21:07;2.90;;;2.70;;
3355;SDS011;1691;52.486;13.374;2024-01-16T08:23:41;26.13;;;15.80;;
3355;SDS011;1691;52.486;13.374;2024-01-16T08:26:16;43.47;;;22.13;;
3355;SDS011;1691;52.486;13.374;2024-01-16T08:28:53;9.40;;;3.83;;
3355;SDS011;1691;52.486;13.374;2024-01-16T08:31:21;3.60;;;3.40;;
3355;SDS011;1691;52.486;13.374;2024-01-16T08:33:55;3.70;;;3.60;;
3355;SDS011;1691;52.486;13.374;2024-01-16T08:36:27;6.43;;;3.50;;
3355;SDS011;1691;52.486;13.374;2024-01-16T08:39:05;4.20;;;3.80;;
3355;SDS011;1691;52.486;13.374;2024-01-16T08:41:39;6.90;;;3.40;;
3355;SDS011;1691;52.486;13.374;2024-01-16T08:44:24;3.33;;;3.17;;
3355;SDS011;1691;52.486;13.374;2024-01-16T08:47:01;4.87;;;4.30;;
3355;SDS011;1691;52.486;13.374;2024-01-16T08:49:36;3.87;;;3.50;;
3355;SDS011;1691;52.486;13.374;2024-01-16T08:52:07;4.20;;;3.80;;
3355;SDS011;1691;52.486;13.374;2024-01-16T08:54:50;4.57;;;4.17;;
3355;SDS011;1691;52.486;13.374;2024-01-16T08:57:28;4.60;;;4.30;;
3355;SDS011;1691;52.486;13.374;2024-01-16T08:59:59;5.50;;;5.17;;
3355;SDS011;1691;52.486;13.374;2024-01-16T09:02:38;9.93;;;5.60;;
3355;SDS011;1691;52.486;13.374;2024-01-16T09:05:07;12.23;;;6.97;;
3355;SDS011;1691;52.486;13.374;2024-01-16T09:07:36;9.43;;;6.37;;
3355;SDS011;1691;52.486;13.374;2024-01-16T09:10:07;5.60;;;5.20;;
3355;SDS011;1691;52.486;13.374;2024-01-16T09:12:39;8.07;;;6.80;;
3355;SDS011;1691;52.486;13.374;2024-01-16T09:15:07;8.87;;;7.17;;
3355;SDS011;1691;52.486;13.374;2024-01-16T09:17:42;9.50;;;6.63;;
3355;SDS011;1691;52.486;13.374;2024-01-16T09:20:16;9.55;;;5.20;;
3355;SDS011;1691;52.486;13.374;2024-01-16T09:22:44;6.13;;;5.20;;
3355;SDS011;1691;52.486;13.374;2024-01-16T09:25:17;4.40;;;4.00;;
3355;SDS011;1691;52.486;13.374;2024-01-16T09:27:47;8.33;;;4.90;;
3355;SDS011;1691;52.486;13.374;2024-01-16T09:30:20;5.33;;;4.20;;
3355;SDS011;1691;52.486;13.374;2024-01-16T09:32:49;5.83;;;4.53;;
3355;SDS011;1691;52.486;13.374;2024-01-16T09:35:18;4.60;;;4.17;;
3355;SDS011;1691;52.486;13.374;2024-01-16T09:37:46;11.10;;;6.47;;
3355;SDS011;1691;52.486;13.374;2024-01-16T09:40:17;9.37;;;4.70;;
3355;SDS011;1691;52.486;13.374;2024-01-16T09:42:44;7.60;;;5.07;;
3355;SDS011;1691;52.486;13.374;2024-01-16T09:45:18;7.33;;;5.77;;
3355;SDS011;1691;52.486;13.374;2024-01-16T09:47:50;10.80;;;9.07;;
3355;SDS011;1691;52.486;13.374;2024-01-16T09:50:19;9.33;;;7.23;;
3355;SDS011;1691;52.486;13.374;2024-01-16T09:52:48;4.90;;;4.60;;
3355;SDS011;1691;52.486;13.374;2024-01-16T09:55:21;6.23;;;5.27;;
3355;SDS011;1691;52.486;13.374;2024-01-16T09:57:55;5.70;;;5.00;;
3355;SDS011;1691;52.486;13.374;2024-01-16T10:00:30;5.87;;;5.30;;
3355;SDS011;1691;52.486;13.374;2024-01-16T10:03:00;5.23;;;4.60;;
3355;SDS011;1691;52.486;13.374;2024-01-16T10:05:33;4.30;;;4.10;;
3355;SDS011;1691;52.486;13.374;2024-01-16T10:08:04;7.70;;;5.40;;
3355;SDS011;1691;52.486;13.374;2024-01-16T10:10:31;5.57;;;5.07;;
3355;SDS011;1691;52.486;13.374;2024-01-16T10:13:13;5.23;;;4.73;;
3355;SDS011;1691;52.486;13.374;2024-01-16T10:15:51;8.17;;;5.60;;
3355;SDS011;1691;52.486;13.374;2024-01-16T10:18:28;5.37;;;4.93;;
3355;SDS011;1691;52.486;13.374;2024-01-16T10:21:05;5.37;;;4.97;;
3355;SDS011;1691;52.486;13.374;2024-01-16T10:23:55;5.67;;;4.20;;
3355;SDS011;1691;52.486;13.374;2024-01-16T10:26:42;5.37;;;4.77;;
3355;SDS011;1691;52.486;13.374;2024-01-16T10:29:17;4.50;;;4.20;;
3355;SDS011;1691;52.486;13.374;2024-01-16T10:31:55;4.73;;;4.33;;
3355;SDS011;1691;52.486;13.374;2024-01-16T10:34:25;5.60;;;3.73;;
3355;SDS011;1691;52.486;13.374;2024-01-16T10:36:58;4.00;;;3.80;;
3355;SDS011;1691;52.486;13.374;2024-01-16T10:39:35;3.67;;;3.43;;
3355;SDS011;1691;52.486;13.374;2024-01-16T10:42:09;3.93;;;3.53;;
3355;SDS011;1691;52.486;13.374;2024-01-16T10:44:41;5.23;;;3.97;;
3355;SDS011;1691;52.486;13.374;2024-01-16T10:47:26;4.13;;;3.23;;
3355;SDS011;1691;52.486;13.374;2024-01-16T10:50:00;4.67;;;3.63;;
3355;SDS011;1691;52.486;13.374;2024-01-16T10:52:34;4.47;;;4.07;;
3355;SDS011;1691;52.486;13.374;2024-01-16T10:55:22;2.73;;;2.63;;
3355;SDS011;1691;52.486;13.374;2024-01-16T10:58:00;36.83;;;17.00;;
3355;SDS011;1691;52.486;13.374;2024-01-16T11:00:46;18.10;;;8.60;;
3355;SDS011;1691;52.486;13.374;2024-01-16T11:03:25;8.38;;;3.22;;
3355;SDS011;1691;52.486;13.374;2024-01-16T11:06:45;6.30;;;2.40;;
3355;SDS011;1691;52.486;13.374;2024-01-16T11:09:17;5.10;;;2.07;;
3355;SDS011;1691;52.486;13.374;2024-01-16T11:11:53;2.90;;;2.60;;
3355;SDS011;1691;52.486;13.374;2024-01-16T11:14:24;2.30;;;2.20;;
3355;SDS011;1691;52.486;13.374;2024-01-16T11:17:06;6.83;;;2.13;;
3355;SDS011;1691;52.486;13.374;2024-01-16T11:19:52;6.10;;;2.50;;
3355;SDS011;1691;52.486;13.374;2024-01-16T11:23:25;5.40;;;2.17;;
3355;SDS011;1691;52.486;13.374;2024-01-16T11:26:58;2.87;;;2.00;;
3355;SDS011;1691;52.486;13.374;2024-01-16T11:30:31;7.70;;;2.70;;
3355;SDS011;1691;52.486;13.374;2024-01-16T11:43:34;2.53;;;2.30;;
3355;SDS011;1691;52.486;13.374;2024-01-16T11:51:27;4.20;;;3.00;;
3355;SDS011;1691;52.486;13.374;2024-01-16T11:54:19;3.57;;;3.40;;
3355;SDS011;1691;52.486;13.374;2024-01-16T12:00:49;7.37;;;3.53;;
3355;SDS011;1691;52.486;13.374;2024-01-16T12:04:49;5.37;;;3.27;;
3355;SDS011;1691;52.486;13.374;2024-01-16T12:11:18;6.30;;;5.80;;
3355;SDS011;1691;52.486;13.374;2024-01-16T12:14:50;5.80;;;3.80;;
3355;SDS011;1691;52.486;13.374;2024-01-16T12:17:58;5.37;;;3.73;;
3355;SDS011;1691;52.486;13.374;2024-01-16T12:21:22;4.10;;;3.80;;
3355;SDS011;1691;52.486;13.374;2024-01-16T12:24:43;12.37;;;4.07;;
3355;SDS011;1691;52.486;13.374;2024-01-16T12:28:06;3.70;;;3.43;;
3355;SDS011;1691;52.486;13.374;2024-01-16T12:31:07;11.70;;;4.33;;
3355;SDS011;1691;52.486;13.374;2024-01-16T12:34:45;11.10;;;3.85;;
3355;SDS011;1691;52.486;13.374;2024-01-16T12:42:53;4.90;;;2.63;;
3355;SDS011;1691;52.486;13.374;2024-01-16T12:46:10;7.00;;;4.23;;
3355;SDS011;1691;52.486;13.374;2024-01-16T12:49:02;5.63;;;3.20;;
3355;SDS011;1691;52.486;13.374;2024-01-16T12:52:23;12.43;;;4.10;;
3355;SDS011;1691;52.486;13.374;2024-01-16T12:55:08;4.13;;;3.20;;
3355;SDS011;1691;52.486;13.374;2024-01-16T12:58:25;5.07;;;3.03;;
3355;SDS011;1691;52.486;13.374;2024-01-16T13:01:32;9.90;;;3.42;;
3355;SDS011;1691;52.486;13.374;2024-01-16T13:04:44;3.60;;;3.40;;
3355;SDS011;1691;52.486;13.374;2024-01-16T13:08:09;3.20;;;3.00;;
3355;SDS011;1691;52.486;13.374;2024-01-16T13:12:20;4.63;;;3.20;;
3355;SDS011;1691;52.486;13.374;2024-01-16T13:15:12;8.20;;;4.27;;
3355;SDS011;1691;52.486;13.374;2024-01-16T13:18:06;14.13;;;3.90;;
3355;SDS011;1691;52.486;13.374;2024-01-16T13:21:34;13.73;;;6.30;;
3355;SDS011;1691;52.486;13.374;2024-01-16T13:24:36;7.93;;;4.77;;
3355;SDS011;1691;52.486;13.374;2024-01-16T13:27:37;3.43;;;2.70;;
3355;SDS011;1691;52.486;13.374;2024-01-16T13:30:31;7.63;;;3.07;;
3355;SDS011;1691;52.486;13.374;2024-01-16T13:33:24;4.30;;;2.77;;
3355;SDS011;1691;52.486;13.374;2024-01-16T13:36:35;3.50;;;2.27;;
3355;SDS011;1691;52.486;13.374;2024-01-16T13:39:43;6.40;;;2.73;;
3355;SDS011;1691;52.486;13.374;2024-01-16T13:43:04;5.67;;;2.50;;
3355;SDS011;1691;52.486;13.374;2024-01-16T13:46:16;12.50;;;3.43;;
3355;SDS011;1691;52.486;13.374;2024-01-16T13:48:58;2.90;;;2.47;;
3355;SDS011;1691;52.486;13.374;2024-01-16T13:51:38;2.70;;;2.60;;
3355;SDS011;1691;52.486;13.374;2024-01-16T13:54:23;3.87;;;2.40;;
3355;SDS011;1691;52.486;13.374;2024-01-16T13:56:53;8.10;;;2.60;;
3355;SDS011;1691;52.486;13.374;2024-01-16T13:59:41;9.17;;;3.30;;
3355;SDS011;1691;52.486;13.374;2024-01-16T14:02:28;5.00;;;3.20;;
3355;SDS011;1691;52.486;13.374;2024-01-16T14:05:18;13.10;;;3.80;;
3355;SDS011;1691;52.486;13.374;2024-01-16T14:08:19;11.50;;;2.17;;
3355;SDS011;1691;52.486;13.374;2024-01-16T14:10:59;7.20;;;2.60;;
3355;SDS011;1691;52.486;13.374;2024-01-16T14:13:53;3.60;;;3.30;;
3355;SDS011;1691;52.486;13.374;2024-01-16T14:16:34;7.72;;;2.95;;
3355;SDS011;1691;52.486;13.374;2024-01-16T14:19:35;4.73;;;2.80;;
3355;SDS011;1691;52.486;13.374;2024-01-16T14:22:09;6.70;;;3.10;;
3355;SDS011;1691;52.486;13.374;2024-01-16T14:24:48;14.50;;;3.93;;
3355;SDS011;1691;52.486;13.374;2024-01-16T14:27:32;10.53;;;3.17;;
3355;SDS011;1691;52.486;13.374;2024-01-16T14:30:12;9.30;;;2.80;;
3355;SDS011;1691;52.486;13.374;2024-01-16T14:33:20;13.50;;;3.10;;
3355;SDS011;1691;52.486;13.374;2024-01-16T14:35:58;5.60;;;2.90;;
3355;SDS011;1691;52.486;13.374;2024-01-16T14:38:49;3.23;;;2.57;;
3355;SDS011;1691;52.486;13.374;2024-01-16T14:41:23;4.10;;;3.00;;
3355;SDS011;1691;52.486;13.374;2024-01-16T14:44:00;4.93;;;3.10;;
3355;SDS011;1691;52.486;13.374;2024-01-16T14:46:35;2.40;;;2.30;;
3355;SDS011;1691;52.486;13.374;2024-01-16T14:49:21;8.55;;;3.05;;
3355;SDS011;1691;52.486;13.374;2024-01-16T14:52:01;6.22;;;3.05;;
3355;SDS011;1691;52.486;13.374;2024-01-16T14:54:37;4.00;;;2.73;;
3355;SDS011;1691;52.486;13.374;2024-01-16T14:57:18;3.47;;;2.57;;
3355;SDS011;1691;52.486;13.374;2024-01-16T15:00:00;5.80;;;2.70;;
3355;SDS011;1691;52.486;13.374;2024-01-16T15:02:37;9.00;;;3.10;;
3355;SDS011;1691;52.486;13.374;2024-01-16T15:05:16;5.33;;;2.97;;
3355;SDS011;1691;52.486;13.374;2024-01-16T15:08:05;14.40;;;3.70;;
3355;SDS011;1691;52.486;13.374;2024-01-16T15:10:38;4.93;;;3.10;;
3355;SDS011;1691;52.486;13.374;2024-01-16T15:13:11;7.37;;;3.73;;
3355;SDS011;1691;52.486;13.374;2024-01-16T15:15:47;5.30;;;3.50;;
3355;SDS011;1691;52.486;13.374;2024-01-16T15:18:15;10.23;;;3.75;;
3355;SDS011;1691;52.486;13.374;2024-01-16T15:20:43;19.63;;;4.40;;
3355;SDS011;1691;52.486;13.374;2024-01-16T15:23:29;30.70;;;15.47;;
3355;SDS011;1691;52.486;13.374;2024-01-16T15:26:05;6.30;;;5.37;;
3355;SDS011;1691;52.486;13.374;2024-01-16T15:32:21;7.53;;;4.40;;
3355;SDS011;1691;52.486;13.374;2024-01-16T15:34:59;8.20;;;4.45;;
3355;SDS011;1691;52.486;13.374;2024-01-16T15:37:59;6.57;;;4.53;;
3355;SDS011;1691;52.486;13.374;2024-01-16T15:44:14;10.48;;;4.72;;
3355;SDS011;1691;52.486;13.374;2024-01-16T15:47:02;6.03;;;4.07;;
3355;SDS011;1691;52.486;13.374;2024-01-16T15:50:11;8.20;;;4.32;;
3355;SDS011;1691;52.486;13.374;2024-01-16T15:53:11;9.73;;;4.87;;
3355;SDS011;1691;52.486;13.374;2024-01-16T15:55:50;6.90;;;4.70;;
3355;SDS011;1691;52.486;13.374;2024-01-16T15:58:34;6.13;;;5.40;;
3355;SDS011;1691;52.486;13.374;2024-01-16T16:01:41;5.00;;;4.50;;
3355;SDS011;1691;52.486;13.374;2024-01-16T16:05:59;13.63;;;6.03;;
3355;SDS011;1691;52.486;13.374;2024-01-16T16:08:44;8.70;;;7.20;;
3355;SDS011;1691;52.486;13.374;2024-01-16T16:11:13;15.83;;;9.77;;
3355;SDS011;1691;52.486;13.374;2024-01-16T16:14:13;12.17;;;6.60;;
3355;SDS011;1691;52.486;13.374;2024-01-16T16:16:48;6.13;;;5.20;;
3355;SDS011;1691;52.486;13.374;2024-01-16T16:19:55;8.73;;;5.60;;
3355;SDS011;1691;52.486;13.374;2024-01-16T16:25:44;8.27;;;6.33;;
3355;SDS011;1691;52.486;13.374;2024-01-16T16:28:41;15.40;;;6.90;;
3355;SDS011;1691;52.486;13.374;2024-01-16T16:31:28;11.30;;;6.60;;
3355;SDS011;1691;52.486;13.374;2024-01-16T16:34:13;11.03;;;5.77;;
3355;SDS011;1691;52.486;13.374;2024-01-16T16:37:02;8.80;;;5.97;;
3355;SDS011;1691;52.486;13.374;2024-01-16T16:40:31;11.03;;;5.60;;
3355;SDS011;1691;52.486;13.374;2024-01-16T16:43:47;6.97;;;5.50;;